KJSO

Cherokee County Airport

Jacksonville, Texas, USA
METAR KJSO 161535Z AUTO 21005KT 10SM CLR 11/03 A3024 RMK AO2 T01160037
Observed Flight Rules
Nov-16 @ 15:35 UTC (28 minutes ago) Visual Flight Rules
Wind Visibility Clouds
210° at 5 knots 10 miles
  • Clear skies
Temperatures Readings
Current 12°C / 54°F
Dewpoint 4°C / 39°F
Humidity 58%
Altimeter 30.24" Hg
Pressure 1024 hPa
Elevation 206
METAR KJSO 161535Z AUTO 21005KT 10SM CLR 11/03 A3024 RMK AO2 T01160037
Observed Flight Rules
Nov-16 @ 15:35 UTC
(28 minutes ago)
VFR
Wind Visibility
210° at 5 knots 10 miles
Clouds
  • Clear skies
Temperature Dewpoint
12°C / 54°F 4°C / 39°F
Humidity Altimeter Pressure
58% 30.24" Hg 1024 hPa